Time;durP1;ratioP1;P1;durP2;ratioP2;P2;SDS_P1;SDS_P2;PMS_P1;PMS_P2;Temp;Humidity;BMP_temperature;BMP_pressure;BME280_temperature;BME280_humidity;BME280_pressure;Samples;Min_cycle;Max_cycle;Signal;HPM_P1;HPM_P2
2023/12/22 00:04:44;;;;;;;2.80;1.27;;;10.10;99.90;;;;;;10034760;28;20029;-74
2023/12/22 00:09:34;;;;;;;2.90;0.80;;;10.20;99.90;;;;;;10028933;28;20123;-71
2023/12/22 00:14:25;;;;;;;2.95;1.50;;;10.20;99.90;;;;;;10026173;28;20069;-72
2023/12/22 00:19:16;;;;;;;2.33;0.98;;;10.30;99.90;;;;;;10019333;28;20032;-72
2023/12/22 00:24:07;;;;;;;1.63;0.63;;;10.30;99.90;;;;;;10033479;28;20095;-70
2023/12/22 00:28:57;;;;;;;2.40;1.25;;;10.30;99.90;;;;;;10030426;28;20132;-71
2023/12/22 00:33:49;;;;;;;1.48;0.70;;;10.30;99.90;;;;;;10027916;28;20531;-71
2023/12/22 00:38:40;;;;;;;2.30;0.68;;;10.30;99.90;;;;;;10021336;28;20159;-74
2023/12/22 00:43:31;;;;;;;2.60;1.15;;;10.30;99.90;;;;;;10021106;28;20026;-72
2023/12/22 00:48:24;;;;;;;4.57;0.98;;;10.20;99.90;;;;;;10025363;28;20337;-73
2023/12/22 00:53:15;;;;;;;2.80;0.73;;;10.20;99.90;;;;;;10001774;28;20411;-71
2023/12/22 00:58:06;;;;;;;2.85;1.42;;;10.20;99.90;;;;;;10032730;28;20025;-72
2023/12/22 01:02:57;;;;;;;3.30;1.13;;;10.30;99.90;;;;;;10031272;28;20042;-72
2023/12/22 01:07:48;;;;;;;2.83;0.98;;;10.30;99.90;;;;;;10024860;28;20479;-71
2023/12/22 01:12:38;;;;;;;4.25;0.70;;;10.40;99.90;;;;;;10004617;28;20033;-72
2023/12/22 01:17:29;;;;;;;1.08;0.60;;;10.40;99.90;;;;;;10025767;28;20026;-73
2023/12/22 01:22:20;;;;;;;2.10;0.90;;;10.50;99.90;;;;;;10037127;28;20041;-74
2023/12/22 01:27:11;;;;;;;1.13;0.60;;;10.30;99.90;;;;;;10041485;28;20328;-71
2023/12/22 01:32:01;;;;;;;1.63;0.70;;;10.10;99.90;;;;;;10034761;28;20104;-73
2023/12/22 01:36:52;;;;;;;2.72;0.70;;;10.00;99.90;;;;;;10028727;28;20109;-74
2023/12/22 01:41:43;;;;;;;0.95;0.70;;;10.00;99.90;;;;;;10025541;28;20471;-74
2023/12/22 01:46:35;;;;;;;1.73;0.68;;;10.00;99.90;;;;;;10009359;28;20034;-74
2023/12/22 01:51:27;;;;;;;4.00;0.80;;;10.10;99.90;;;;;;10024000;28;20034;-74
2023/12/22 01:56:18;;;;;;;1.77;0.70;;;10.20;99.90;;;;;;10038919;28;20446;-74
2023/12/22 02:01:09;;;;;;;1.60;0.65;;;10.30;99.90;;;;;;10040732;28;20041;-74
2023/12/22 02:06:01;;;;;;;3.53;1.23;;;10.20;99.90;;;;;;10035061;28;20451;-72
2023/12/22 02:10:51;;;;;;;3.53;0.95;;;10.20;99.90;;;;;;10024544;28;20393;-72
2023/12/22 02:15:42;;;;;;;2.45;0.90;;;10.30;99.90;;;;;;10019191;28;20030;-72
2023/12/22 02:20:33;;;;;;;2.10;0.93;;;10.30;99.90;;;;;;10016274;28;20030;-71
2023/12/22 02:25:24;;;;;;;2.25;0.68;;;10.40;99.90;;;;;;10022072;28;20025;-71
2023/12/22 02:30:20;;;;;;;1.98;0.90;;;10.40;99.90;;;;;;10028696;28;20515;-73
2023/12/22 02:35:17;;;;;;;2.25;1.20;;;10.30;99.90;;;;;;10024737;28;20026;-72
2023/12/22 02:40:09;;;;;;;3.65;0.80;;;10.40;99.90;;;;;;10024814;28;20034;-72
2023/12/22 02:45:00;;;;;;;4.60;1.42;;;10.40;99.90;;;;;;10011257;28;20173;-72
2023/12/22 02:49:50;;;;;;;4.28;1.00;;;10.40;99.90;;;;;;10022158;28;20267;-71
2023/12/22 02:54:41;;;;;;;9.68;1.65;;;10.30;99.90;;;;;;10031435;28;20037;-73
2023/12/22 02:59:32;;;;;;;2.30;0.90;;;10.40;99.90;;;;;;10025635;28;20033;-71
2023/12/22 03:04:22;;;;;;;5.28;0.85;;;10.30;99.90;;;;;;10034790;28;20269;-76
2023/12/22 03:09:13;;;;;;;3.97;0.90;;;10.30;99.90;;;;;;10031059;28;20030;-73
2023/12/22 03:14:04;;;;;;;2.05;0.70;;;10.30;99.90;;;;;;10024805;28;20061;-74
2023/12/22 03:18:54;;;;;;;1.77;0.70;;;10.30;99.90;;;;;;10026243;28;20030;-74
2023/12/22 03:23:45;;;;;;;2.35;0.80;;;10.20;99.90;;;;;;10031980;28;20037;-73
2023/12/22 03:28:36;;;;;;;4.47;0.77;;;10.20;99.90;;;;;;10030070;28;20060;-72
2023/12/22 03:33:26;;;;;;;5.82;0.85;;;10.20;99.90;;;;;;10013187;28;20029;-72
2023/12/22 03:38:17;;;;;;;5.03;1.02;;;10.20;99.90;;;;;;10025174;28;20048;-71
2023/12/22 03:43:09;;;;;;;3.65;1.02;;;10.30;99.90;;;;;;10003802;28;20461;-72
2023/12/22 03:48:00;;;;;;;4.13;1.40;;;10.30;99.90;;;;;;10024256;28;20137;-71
2023/12/22 03:52:50;;;;;;;4.65;1.58;;;10.40;99.90;;;;;;10022662;28;20069;-72
2023/12/22 03:57:41;;;;;;;5.00;1.80;;;10.40;99.90;;;;;;10032655;28;20023;-71
2023/12/22 04:02:32;;;;;;;2.78;1.35;;;10.30;99.90;;;;;;10030335;28;20522;-71
2023/12/22 04:07:22;;;;;;;2.88;1.00;;;10.40;99.90;;;;;;10029417;28;20034;-71
2023/12/22 04:12:13;;;;;;;3.15;1.17;;;10.30;99.90;;;;;;10020203;28;20496;-71
2023/12/22 04:17:03;;;;;;;5.20;1.15;;;10.30;99.90;;;;;;10024532;28;20045;-70
2023/12/22 04:21:54;;;;;;;4.25;1.20;;;10.30;99.90;;;;;;10004020;28;20042;-72
2023/12/22 04:26:45;;;;;;;4.55;1.10;;;10.30;99.90;;;;;;10010219;28;20053;-71
2023/12/22 04:31:35;;;;;;;3.85;1.15;;;10.40;99.90;;;;;;10028073;28;20084;-71
2023/12/22 04:36:26;;;;;;;3.30;1.40;;;10.30;99.90;;;;;;10024267;28;20061;-70
2023/12/22 04:41:17;;;;;;;3.90;0.88;;;10.40;99.90;;;;;;10019160;28;20476;-71
2023/12/22 04:46:07;;;;;;;4.30;1.00;;;10.30;99.90;;;;;;10030142;28;20208;-72
2023/12/22 04:50:58;;;;;;;3.13;0.90;;;10.40;99.90;;;;;;10023202;28;20153;-72
2023/12/22 04:55:49;;;;;;;3.90;1.13;;;10.40;99.90;;;;;;10004792;28;20072;-71
2023/12/22 05:00:39;;;;;;;6.85;2.05;;;10.40;99.90;;;;;;10024613;28;20136;-71
2023/12/22 05:05:30;;;;;;;4.60;1.08;;;10.30;99.90;;;;;;10024606;28;20068;-72
2023/12/22 05:10:21;;;;;;;3.05;1.50;;;10.30;99.90;;;;;;10024660;28;20121;-72
2023/12/22 05:15:12;;;;;;;2.40;1.17;;;10.30;99.90;;;;;;10020805;28;20063;-70
2023/12/22 05:20:03;;;;;;;6.70;1.25;;;10.30;99.90;;;;;;10018567;28;20033;-72
2023/12/22 05:24:53;;;;;;;4.28;1.20;;;10.30;99.90;;;;;;10019129;28;20692;-71
2023/12/22 05:29:44;;;;;;;2.25;1.73;;;10.40;99.90;;;;;;10029296;28;20541;-70
2023/12/22 05:34:36;;;;;;;6.05;1.35;;;10.40;99.90;;;;;;10024811;28;20079;-71
2023/12/22 05:39:27;;;;;;;6.35;2.05;;;10.30;99.90;;;;;;10019066;28;20026;-70
2023/12/22 05:44:17;;;;;;;4.15;1.70;;;10.30;99.90;;;;;;10024217;28;20026;-72
2023/12/22 05:49:08;;;;;;;3.53;1.27;;;10.30;99.90;;;;;;10020366;28;20120;-73
2023/12/22 05:53:58;;;;;;;1.75;0.80;;;10.40;99.90;;;;;;10021165;28;20112;-71
2023/12/22 05:58:50;;;;;;;3.65;1.20;;;10.40;99.90;;;;;;10034875;28;20172;-75
2023/12/22 06:03:41;;;;;;;1.27;0.57;;;10.30;99.90;;;;;;10015905;28;20543;-70
2023/12/22 06:08:32;;;;;;;6.70;2.08;;;10.40;99.90;;;;;;10034882;28;20144;-72
2023/12/22 06:13:24;;;;;;;6.18;1.65;;;10.40;99.90;;;;;;10027330;28;20029;-73
2023/12/22 06:18:14;;;;;;;5.05;0.98;;;10.40;99.90;;;;;;10007399;28;20034;-74
2023/12/22 06:23:05;;;;;;;6.15;1.85;;;10.40;99.90;;;;;;10030970;28;20032;-72
2023/12/22 06:27:56;;;;;;;2.63;1.40;;;10.50;99.90;;;;;;10038469;28;20034;-71
2023/12/22 06:32:47;;;;;;;3.13;0.88;;;10.50;99.90;;;;;;10032474;28;20049;-71
2023/12/22 06:37:38;;;;;;;4.93;1.45;;;10.50;99.90;;;;;;10010591;28;20130;-73
2023/12/22 06:42:29;;;;;;;4.88;1.30;;;10.50;99.90;;;;;;10026531;28;20108;-70
2023/12/22 06:47:19;;;;;;;3.30;1.00;;;10.50;99.90;;;;;;10032070;28;20030;-71
2023/12/22 06:52:10;;;;;;;2.53;0.90;;;10.60;99.90;;;;;;10026888;28;20026;-71
2023/12/22 06:57:01;;;;;;;5.68;0.98;;;10.50;99.90;;;;;;10028917;28;20399;-70
2023/12/22 07:01:52;;;;;;;4.28;1.45;;;10.50;99.90;;;;;;10015872;28;20171;-70
2023/12/22 07:06:43;;;;;;;4.00;1.10;;;10.60;99.90;;;;;;10034084;28;20041;-72
2023/12/22 07:11:33;;;;;;;4.88;1.15;;;10.60;99.90;;;;;;10026949;28;20700;-70
2023/12/22 07:16:24;;;;;;;1.20;0.60;;;10.50;99.90;;;;;;10025839;28;20025;-71
2023/12/22 07:21:18;;;;;;;2.20;0.93;;;10.50;99.90;;;;;;10023553;28;20026;-74
2023/12/22 07:26:09;;;;;;;6.55;1.85;;;10.50;99.90;;;;;;10028987;28;20107;-72
2023/12/22 07:30:59;;;;;;;2.05;1.05;;;10.60;99.90;;;;;;10030005;28;20081;-74
2023/12/22 07:35:50;;;;;;;3.22;0.98;;;10.60;99.90;;;;;;10026677;28;20399;-74
2023/12/22 07:40:41;;;;;;;3.38;1.73;;;10.60;99.90;;;;;;10022145;28;20034;-72
2023/12/22 07:45:31;;;;;;;4.15;1.00;;;10.60;99.90;;;;;;10009217;28;20022;-73
2023/12/22 07:50:22;;;;;;;5.18;1.70;;;10.60;99.90;;;;;;10022489;28;20573;-70
2023/12/22 07:55:13;;;;;;;3.30;1.30;;;10.60;99.90;;;;;;10026343;28;20399;-73
2023/12/22 08:00:05;;;;;;;5.97;1.67;;;10.60;99.90;;;;;;10026469;28;20221;-73
2023/12/22 08:04:56;;;;;;;6.38;1.73;;;10.60;99.90;;;;;;10025180;28;20535;-71
2023/12/22 08:09:47;;;;;;;4.22;1.63;;;10.60;99.90;;;;;;10025289;28;20053;-72
2023/12/22 08:14:37;;;;;;;3.63;1.98;;;10.80;99.90;;;;;;10020164;28;20037;-72
2023/12/22 08:19:28;;;;;;;2.88;1.38;;;10.70;99.90;;;;;;10025237;28;20141;-71
2023/12/22 08:24:19;;;;;;;3.35;1.73;;;10.70;99.90;;;;;;10022653;28;20113;-71
2023/12/22 08:29:09;;;;;;;5.75;1.27;;;10.60;99.90;;;;;;10031966;28;20061;-73
2023/12/22 08:34:00;;;;;;;5.63;1.50;;;10.70;99.90;;;;;;10025916;28;20026;-71
2023/12/22 08:38:51;;;;;;;2.30;1.00;;;10.70;99.90;;;;;;10019407;28;20036;-71
2023/12/22 08:43:42;;;;;;;4.53;1.52;;;10.70;99.90;;;;;;10027005;28;20104;-70
2023/12/22 08:48:32;;;;;;;5.88;2.05;;;10.70;99.90;;;;;;10004321;28;20041;-71
2023/12/22 08:53:23;;;;;;;6.75;2.03;;;10.70;99.90;;;;;;10026663;28;20026;-72
2023/12/22 08:58:14;;;;;;;6.25;1.50;;;10.80;99.90;;;;;;10035241;28;20065;-71
2023/12/22 09:03:05;;;;;;;5.10;2.05;;;10.70;99.90;;;;;;10012216;28;20033;-73
2023/12/22 09:07:55;;;;;;;4.43;1.58;;;10.80;99.90;;;;;;10025802;28;20033;-71
2023/12/22 09:12:46;;;;;;;5.70;1.63;;;10.80;99.90;;;;;;10023071;28;20025;-73
2023/12/22 09:17:37;;;;;;;5.30;1.10;;;10.80;99.90;;;;;;10018555;28;20542;-72
2023/12/22 09:22:27;;;;;;;4.65;2.10;;;10.90;99.90;;;;;;10011536;28;20092;-76
2023/12/22 09:27:19;;;;;;;7.72;2.40;;;10.90;99.90;;;;;;10032816;28;20180;-77
2023/12/22 09:32:10;;;;;;;6.05;1.80;;;10.80;99.90;;;;;;10026745;28;20040;-73
2023/12/22 09:37:01;;;;;;;8.18;2.00;;;10.80;99.90;;;;;;10016330;28;20507;-74
2023/12/22 09:41:52;;;;;;;5.22;1.55;;;10.90;99.90;;;;;;10041658;28;20034;-71
2023/12/22 09:46:43;;;;;;;5.55;1.90;;;10.90;99.90;;;;;;10050558;28;20112;-70
2023/12/22 09:51:34;;;;;;;4.43;1.95;;;10.90;99.90;;;;;;10043134;28;20116;-71
2023/12/22 09:56:25;;;;;;;7.18;2.10;;;10.80;99.90;;;;;;10044450;28;20028;-70
2023/12/22 10:01:21;;;;;;;8.07;2.00;;;10.80;99.90;;;;;;10032432;28;20026;-73
2023/12/22 10:06:12;;;;;;;6.35;1.52;;;10.90;99.90;;;;;;10049102;28;20017;-77
2023/12/22 10:11:04;;;;;;;5.05;1.48;;;10.90;99.90;;;;;;10048352;28;20041;-75
2023/12/22 10:15:56;;;;;;;8.05;1.30;;;10.90;99.90;;;;;;10044503;28;20487;-70
2023/12/22 10:20:46;;;;;;;4.07;1.10;;;10.90;99.90;;;;;;10050469;28;20099;-70
2023/12/22 10:25:40;;;;;;;4.05;1.40;;;10.80;99.90;;;;;;10047304;28;20061;-70
2023/12/22 10:30:32;;;;;;;1.92;1.10;;;10.80;99.90;;;;;;10045863;28;20576;-72
2023/12/22 10:35:23;;;;;;;8.75;1.42;;;10.80;99.90;;;;;;10050857;28;20035;-70
2023/12/22 10:40:14;;;;;;;2.40;1.17;;;10.70;99.90;;;;;;10028463;28;20430;-73
2023/12/22 10:45:06;;;;;;;2.17;0.98;;;10.70;99.90;;;;;;10041342;28;20031;-73
2023/12/22 10:49:57;;;;;;;1.92;1.00;;;10.70;99.90;;;;;;10025756;28;20124;-69
2023/12/22 10:54:49;;;;;;;3.42;1.33;;;10.70;99.90;;;;;;10039140;28;20399;-73
2023/12/22 10:59:45;;;;;;;4.00;1.30;;;10.70;99.90;;;;;;10026844;28;20492;-75
2023/12/22 11:04:38;;;;;;;3.92;0.75;;;10.80;99.90;;;;;;10029507;28;20041;-74
2023/12/22 11:09:31;;;;;;;3.88;1.10;;;10.90;99.90;;;;;;10046015;28;20478;-70
2023/12/22 11:14:23;;;;;;;1.33;0.77;;;10.90;99.90;;;;;;10036504;28;20113;-71
2023/12/22 11:19:15;;;;;;;1.92;0.80;;;10.90;99.90;;;;;;10045682;28;20046;-69
2023/12/22 11:24:07;;;;;;;2.83;1.38;;;10.90;99.90;;;;;;10044682;28;20034;-72
2023/12/22 11:28:59;;;;;;;3.53;1.85;;;10.90;99.90;;;;;;10041905;28;20858;-76
2023/12/22 11:33:50;;;;;;;2.88;1.05;;;10.90;99.90;;;;;;10023903;28;20384;-69
2023/12/22 11:38:43;;;;;;;2.90;1.27;;;10.90;99.90;;;;;;10020669;28;20035;-69
2023/12/22 11:43:35;;;;;;;3.50;1.42;;;10.90;99.90;;;;;;10008615;28;20061;-68
2023/12/22 11:48:26;;;;;;;2.90;2.00;;;10.80;99.90;;;;;;10028471;28;20042;-71
2023/12/22 11:53:24;;;;;;;3.03;1.00;;;10.90;99.90;;;;;;10016718;28;20038;-71
2023/12/22 11:58:51;;;;;;;4.18;1.00;;;10.80;99.90;;;;;;10038923;28;20033;-72
2023/12/22 12:03:47;;;;;;;;;;;10.90;99.90;;;;;;10023613;28;20395;-73
2023/12/22 12:08:38;;;;;;;3.45;1.08;;;10.90;99.90;;;;;;10025222;28;19972;-69
2023/12/22 12:13:30;;;;;;;2.10;1.20;;;10.90;99.90;;;;;;10023378;28;20025;-71
2023/12/22 12:18:24;;;;;;;2.70;1.20;;;10.80;99.90;;;;;;10028809;28;20056;-73
2023/12/22 12:23:16;;;;;;;3.33;1.55;;;10.90;99.90;;;;;;10035360;28;20048;-75
2023/12/22 12:28:11;;;;;;;4.15;1.00;;;10.80;99.90;;;;;;10026128;28;20049;-77
2023/12/22 12:33:09;;;;;;;1.97;1.30;;;10.90;99.90;;;;;;10021867;28;20034;-76
2023/12/22 12:38:00;;;;;;;2.33;1.10;;;10.90;99.90;;;;;;10014787;28;20034;-70
2023/12/22 12:42:52;;;;;;;1.80;1.05;;;10.90;99.90;;;;;;10014590;28;20083;-73
2023/12/22 12:47:42;;;;;;;2.10;1.02;;;10.80;99.90;;;;;;10044220;28;20044;-72
2023/12/22 12:52:34;;;;;;;1.05;0.77;;;10.90;99.90;;;;;;10029189;28;20034;-77
2023/12/22 12:57:25;;;;;;;1.92;1.10;;;10.90;99.90;;;;;;10003756;28;20155;-69
2023/12/22 13:02:17;;;;;;;1.38;0.75;;;10.90;99.90;;;;;;10016949;28;20014;-71
2023/12/22 13:07:09;;;;;;;0.40;0.40;;;10.90;99.90;;;;;;10023472;28;20025;-69
2023/12/22 13:12:00;;;;;;;0.40;0.22;;;11.00;99.90;;;;;;10023767;28;20034;-69
2023/12/22 13:16:54;;;;;;;0.50;0.30;;;11.00;99.90;;;;;;10035086;28;20032;-70
2023/12/22 13:21:45;;;;;;;1.35;0.50;;;11.00;99.90;;;;;;10039303;28;20033;-70
2023/12/22 13:26:37;;;;;;;1.20;0.40;;;11.00;99.90;;;;;;10006000;28;20491;-70
2023/12/22 13:31:29;;;;;;;0.35;0.22;;;11.00;99.90;;;;;;10026578;28;20572;-75
2023/12/22 13:36:20;;;;;;;0.80;0.30;;;11.00;99.90;;;;;;10026231;28;20034;-74
2023/12/22 13:41:11;;;;;;;0.55;0.50;;;11.10;99.90;;;;;;10024520;28;20549;-74
2023/12/22 13:46:03;;;;;;;1.05;0.35;;;11.00;99.90;;;;;;10027522;28;20029;-75
2023/12/22 13:50:58;;;;;;;0.25;0.25;;;11.10;99.90;;;;;;10030555;28;20041;-74
2023/12/22 13:56:09;;;;;;;1.10;0.45;;;11.10;99.90;;;;;;10011539;28;20063;-77
2023/12/22 14:01:16;;;;;;;0.40;0.20;;;11.10;99.90;;;;;;10028878;28;20463;-70
2023/12/22 14:06:08;;;;;;;0.73;0.30;;;11.20;99.90;;;;;;10029299;28;20029;-75
2023/12/22 14:11:00;;;;;;;1.02;0.20;;;11.20;99.90;;;;;;10010724;28;20415;-74
2023/12/22 14:15:51;;;;;;;2.15;0.73;;;11.20;99.90;;;;;;10025344;28;20029;-72
2023/12/22 14:20:43;;;;;;;0.32;0.30;;;11.10;99.90;;;;;;10050066;28;20144;-70
2023/12/22 14:25:34;;;;;;;0.50;0.30;;;11.10;99.90;;;;;;10043795;28;20136;-72
2023/12/22 14:30:24;;;;;;;0.50;0.35;;;11.20;99.90;;;;;;10047593;28;20561;-71
2023/12/22 14:35:15;;;;;;;0.20;0.20;;;11.30;99.90;;;;;;10045341;28;20116;-74
2023/12/22 14:40:07;;;;;;;0.77;0.45;;;11.20;99.90;;;;;;10028208;28;20109;-74
2023/12/22 14:44:58;;;;;;;0.63;0.40;;;11.30;99.90;;;;;;10043362;28;20117;-73
2023/12/22 14:49:48;;;;;;;0.73;0.63;;;11.30;99.90;;;;;;10042819;28;20438;-74
2023/12/22 14:54:39;;;;;;;1.27;0.47;;;11.20;99.90;;;;;;10036421;28;20037;-73
2023/12/22 14:59:30;;;;;;;0.38;0.32;;;11.20;99.90;;;;;;10042164;28;20103;-72
2023/12/22 15:04:20;;;;;;;0.40;0.30;;;11.20;99.90;;;;;;10045461;28;20032;-72
2023/12/22 15:09:11;;;;;;;0.43;0.35;;;11.10;99.90;;;;;;10041434;28;20407;-69
2023/12/22 15:14:02;;;;;;;0.38;0.30;;;11.20;99.90;;;;;;10030814;28;20030;-69
2023/12/22 15:18:53;;;;;;;1.27;0.38;;;11.20;99.90;;;;;;10040672;28;20044;-81
2023/12/22 15:23:44;;;;;;;1.33;0.60;;;11.20;99.90;;;;;;10019414;28;20111;-79
2023/12/22 15:28:36;;;;;;;0.82;0.35;;;11.20;99.90;;;;;;10034684;28;20761;-80
2023/12/22 15:33:26;;;;;;;0.88;0.30;;;11.10;99.90;;;;;;10033409;28;20414;-76
2023/12/22 15:38:17;;;;;;;2.88;0.32;;;11.20;99.90;;;;;;10025007;28;20033;-77
2023/12/22 15:43:08;;;;;;;1.08;0.52;;;11.00;99.90;;;;;;10023178;28;20103;-70
2023/12/22 15:48:01;;;;;;;0.98;0.60;;;11.10;99.90;;;;;;10031225;28;20558;-78
2023/12/22 15:52:51;;;;;;;0.88;0.55;;;11.10;99.90;;;;;;10050548;28;20060;-72
2023/12/22 15:57:42;;;;;;;0.35;0.35;;;11.10;99.90;;;;;;10045894;28;20031;-75
2023/12/22 16:02:38;;;;;;;1.75;0.50;;;11.00;99.90;;;;;;10040964;28;20029;-73
2023/12/22 16:07:29;;;;;;;2.28;0.47;;;11.10;99.90;;;;;;10019139;28;20516;-75
2023/12/22 16:12:19;;;;;;;2.03;0.55;;;11.10;99.90;;;;;;10031086;28;20045;-73
2023/12/22 16:17:10;;;;;;;1.02;0.30;;;11.10;99.90;;;;;;10016730;28;20026;-72
2023/12/22 16:22:01;;;;;;;2.38;0.50;;;11.20;99.90;;;;;;10042663;28;20092;-70
2023/12/22 16:26:52;;;;;;;0.52;0.47;;;11.20;99.90;;;;;;10037458;28;20041;-72
2023/12/22 16:31:42;;;;;;;1.35;0.40;;;11.20;99.90;;;;;;10032790;28;20054;-74
2023/12/22 16:36:33;;;;;;;0.93;0.80;;;11.10;99.90;;;;;;10016717;28;20022;-70
2023/12/22 16:41:24;;;;;;;0.88;0.43;;;11.20;99.90;;;;;;10005485;28;20030;-73
2023/12/22 16:46:15;;;;;;;0.80;0.43;;;11.10;99.90;;;;;;9994053;28;20623;-75
2023/12/22 16:51:06;;;;;;;2.83;0.45;;;11.10;99.90;;;;;;10033708;28;20034;-72
2023/12/22 16:55:57;;;;;;;0.30;0.30;;;11.10;99.90;;;;;;10042495;28;20017;-77
2023/12/22 17:00:48;;;;;;;0.93;0.57;;;11.10;99.90;;;;;;10037505;28;20416;-77
2023/12/22 17:05:40;;;;;;;2.15;0.95;;;10.90;99.90;;;;;;10029104;28;20087;-75
2023/12/22 17:10:31;;;;;;;1.00;0.68;;;10.90;99.90;;;;;;10027158;28;20038;-74
2023/12/22 17:15:22;;;;;;;1.38;0.70;;;10.90;99.90;;;;;;10020926;28;20025;-70
2023/12/22 17:20:13;;;;;;;0.95;0.50;;;11.00;99.90;;;;;;10035987;28;20061;-70
2023/12/22 17:25:04;;;;;;;1.20;0.55;;;11.00;99.90;;;;;;10012153;28;20121;-71
2023/12/22 17:29:55;;;;;;;0.82;0.50;;;10.90;99.90;;;;;;10026342;28;20682;-75
2023/12/22 17:34:46;;;;;;;0.65;0.45;;;10.90;99.90;;;;;;10026294;28;20116;-70
2023/12/22 17:39:37;;;;;;;2.08;0.70;;;11.00;99.90;;;;;;10020884;28;20172;-79
2023/12/22 17:44:27;;;;;;;2.03;0.90;;;11.00;99.90;;;;;;10019849;28;20113;-71
2023/12/22 17:49:18;;;;;;;2.67;0.47;;;11.00;99.90;;;;;;10024346;28;20124;-70
2023/12/22 17:54:09;;;;;;;0.98;0.90;;;11.00;99.90;;;;;;10041031;28;20495;-70
2023/12/22 17:59:00;;;;;;;0.98;0.57;;;11.00;99.90;;;;;;10029473;28;20408;-70
2023/12/22 18:03:53;;;;;;;1.58;0.80;;;11.00;99.90;;;;;;10038457;28;20030;-71
2023/12/22 18:08:44;;;;;;;1.60;0.90;;;11.00;99.90;;;;;;10033992;28;20086;-70
2023/12/22 18:13:35;;;;;;;2.70;1.02;;;11.00;99.90;;;;;;10043066;28;20087;-69
2023/12/22 18:18:26;;;;;;;1.85;0.70;;;11.10;99.90;;;;;;10033927;28;20030;-70
2023/12/22 18:23:16;;;;;;;2.88;0.82;;;11.10;99.90;;;;;;10037175;28;20032;-71
2023/12/22 18:28:14;;;;;;;1.02;0.55;;;11.00;99.90;;;;;;10044452;28;20111;-70
2023/12/22 18:33:07;;;;;;;0.88;0.82;;;11.00;99.90;;;;;;10013918;28;20107;-77
2023/12/22 18:37:58;;;;;;;2.38;0.82;;;11.00;99.90;;;;;;10046399;28;20079;-74
2023/12/22 18:42:49;;;;;;;0.50;0.47;;;11.10;99.90;;;;;;10034897;28;20156;-74
2023/12/22 18:47:39;;;;;;;1.85;0.98;;;11.00;99.90;;;;;;10014594;28;20022;-73
2023/12/22 18:52:30;;;;;;;1.05;0.65;;;11.10;99.90;;;;;;10007921;28;20045;-70
2023/12/22 18:57:21;;;;;;;3.55;1.10;;;11.00;99.90;;;;;;10037605;28;20033;-71
2023/12/22 19:02:12;;;;;;;1.83;0.90;;;11.00;99.90;;;;;;10053965;28;20026;-69
2023/12/22 19:07:03;;;;;;;0.65;0.63;;;11.00;99.90;;;;;;10029791;28;20040;-70
2023/12/22 19:11:54;;;;;;;1.65;0.80;;;11.00;99.90;;;;;;10040224;28;20096;-69
2023/12/22 19:16:45;;;;;;;1.45;0.88;;;11.00;99.90;;;;;;10040644;28;20703;-70
2023/12/22 19:21:35;;;;;;;2.60;1.17;;;11.00;99.90;;;;;;10022625;28;20042;-70
2023/12/22 19:26:26;;;;;;;1.75;0.65;;;11.10;99.90;;;;;;10017278;28;20065;-69
2023/12/22 19:31:17;;;;;;;1.20;1.08;;;11.10;99.90;;;;;;10038570;28;20049;-71
2023/12/22 19:36:10;;;;;;;2.90;0.60;;;11.10;99.90;;;;;;10037950;28;20800;-69
2023/12/22 19:41:00;;;;;;;1.40;0.40;;;11.10;99.90;;;;;;10035864;28;20211;-72
2023/12/22 19:45:51;;;;;;;0.65;0.50;;;11.20;99.90;;;;;;10033412;28;20087;-69
2023/12/22 19:50:44;;;;;;;1.85;0.77;;;11.10;99.90;;;;;;10026664;28;20041;-72
2023/12/22 19:55:36;;;;;;;0.70;0.60;;;11.10;99.90;;;;;;10022619;28;20129;-73
2023/12/22 20:00:27;;;;;;;0.90;0.50;;;11.10;99.90;;;;;;10032405;28;20108;-71
2023/12/22 20:05:18;;;;;;;1.60;0.38;;;11.10;99.90;;;;;;10046556;28;20108;-69
2023/12/22 20:10:09;;;;;;;0.98;0.65;;;11.00;99.90;;;;;;10044876;28;20061;-69
2023/12/22 20:15:00;;;;;;;2.88;0.65;;;11.00;99.90;;;;;;10048026;28;20034;-73
2023/12/22 20:19:51;;;;;;;1.27;0.63;;;11.00;99.90;;;;;;10032697;28;20034;-70
2023/12/22 20:24:41;;;;;;;0.82;0.60;;;10.90;99.90;;;;;;10023015;28;20493;-70
2023/12/22 20:29:32;;;;;;;1.13;0.47;;;10.90;99.90;;;;;;10014538;28;20056;-70
2023/12/22 20:34:23;;;;;;;0.73;0.50;;;11.00;99.90;;;;;;10042073;28;20437;-69
2023/12/22 20:39:13;;;;;;;1.77;0.73;;;11.00;99.90;;;;;;10045228;28;20104;-74
2023/12/22 20:44:04;;;;;;;1.75;0.57;;;10.90;99.90;;;;;;10039786;28;20013;-71
2023/12/22 20:48:55;;;;;;;0.90;0.70;;;10.90;99.90;;;;;;10033027;28;20487;-71
2023/12/22 20:53:46;;;;;;;1.25;0.60;;;10.90;99.90;;;;;;10027200;28;20337;-76
2023/12/22 20:58:36;;;;;;;1.00;0.50;;;10.90;99.90;;;;;;10021397;28;20033;-73
2023/12/22 21:03:27;;;;;;;3.45;0.70;;;10.90;99.90;;;;;;10024978;28;20402;-73
2023/12/22 21:08:17;;;;;;;1.20;0.90;;;10.90;99.90;;;;;;10051095;28;20517;-71
2023/12/22 21:13:08;;;;;;;5.20;0.70;;;11.00;99.90;;;;;;10040459;28;20082;-76
2023/12/22 21:17:59;;;;;;;2.72;0.77;;;10.90;99.90;;;;;;10038064;28;20037;-71
2023/12/22 21:22:50;;;;;;;2.53;0.82;;;10.90;99.90;;;;;;10022244;28;20030;-70
2023/12/22 21:27:40;;;;;;;2.38;0.85;;;10.80;99.90;;;;;;10021065;28;20058;-69
2023/12/22 21:32:32;;;;;;;2.67;0.60;;;10.70;99.90;;;;;;10020242;28;20466;-71
2023/12/22 21:37:24;;;;;;;2.15;0.65;;;10.70;99.90;;;;;;10056560;28;20052;-70
2023/12/22 21:42:15;;;;;;;1.38;0.70;;;10.80;99.90;;;;;;10050266;28;20017;-75
2023/12/22 21:47:07;;;;;;;1.20;0.68;;;10.80;99.90;;;;;;10044478;28;20049;-75
2023/12/22 21:51:58;;;;;;;1.50;0.70;;;10.90;99.90;;;;;;10017502;28;20296;-71
2023/12/22 21:56:48;;;;;;;3.20;0.80;;;10.90;99.90;;;;;;10036076;28;20287;-69
2023/12/22 22:01:48;;;;;;;1.17;0.60;;;10.90;99.90;;;;;;10028751;28;20455;-73
2023/12/22 22:06:44;;;;;;;1.30;0.93;;;11.00;99.90;;;;;;10016360;28;20561;-73
2023/12/22 22:11:35;;;;;;;2.20;0.80;;;11.00;99.90;;;;;;10037728;28;20131;-73
2023/12/22 22:16:28;;;;;;;2.22;0.60;;;11.00;99.90;;;;;;10046221;28;20104;-76
2023/12/22 22:21:19;;;;;;;2.25;1.42;;;11.00;99.90;;;;;;10024930;28;20034;-71
2023/12/22 22:26:10;;;;;;;1.55;0.50;;;11.00;99.90;;;;;;10024282;28;20034;-77
2023/12/22 22:31:02;;;;;;;3.05;0.50;;;11.00;99.90;;;;;;10028213;28;20045;-71
2023/12/22 22:35:53;;;;;;;0.82;0.50;;;11.00;99.90;;;;;;10054130;28;20029;-71
2023/12/22 22:40:43;;;;;;;1.25;0.35;;;11.00;99.90;;;;;;10049875;28;20116;-72
2023/12/22 22:45:34;;;;;;;2.45;0.50;;;11.00;99.90;;;;;;10029475;28;20013;-72
2023/12/22 22:50:25;;;;;;;1.27;0.50;;;11.00;99.90;;;;;;10039096;28;20044;-73
2023/12/22 22:55:15;;;;;;;2.35;0.50;;;11.00;99.90;;;;;;10033477;28;20431;-70
2023/12/22 23:00:11;;;;;;;0.70;0.40;;;11.00;99.90;;;;;;10011318;28;20038;-71
2023/12/22 23:05:03;;;;;;;1.85;1.05;;;11.00;99.90;;;;;;10023700;28;20048;-70
2023/12/22 23:09:57;;;;;;;1.98;0.98;;;11.00;99.90;;;;;;10051003;28;20041;-71
2023/12/22 23:14:47;;;;;;;1.80;1.63;;;11.00;99.90;;;;;;10018517;28;20045;-72
2023/12/22 23:19:38;;;;;;;1.25;0.60;;;11.00;99.90;;;;;;10028563;28;20029;-70
2023/12/22 23:24:28;;;;;;;1.23;0.73;;;11.00;99.90;;;;;;10008759;28;20436;-74
2023/12/22 23:29:19;;;;;;;0.55;0.30;;;11.00;99.90;;;;;;10031158;28;20041;-71
2023/12/22 23:34:12;;;;;;;1.58;0.43;;;10.90;99.90;;;;;;10056081;28;20017;-71
2023/12/22 23:39:03;;;;;;;1.20;0.50;;;10.90;99.90;;;;;;10050587;28;20112;-72
2023/12/22 23:43:54;;;;;;;0.90;0.43;;;10.90;99.90;;;;;;10043934;28;20056;-71
2023/12/22 23:48:45;;;;;;;1.35;0.40;;;11.00;99.90;;;;;;10036704;28;20384;-71
2023/12/22 23:53:35;;;;;;;0.57;0.40;;;11.00;99.90;;;;;;10031443;28;20405;-72
2023/12/22 23:58:26;;;;;;;0.93;0.50;;;10.90;99.90;;;;;;10026716;28;20038;-70
